createdAt,value
2022-10-03T00:01:35.924Z,82.13
2022-10-03T00:04:18.699Z,82.37
2022-10-03T00:06:57.617Z,82.34
2022-10-03T00:09:36.799Z,82.10
2022-10-03T00:12:15.601Z,82.40
2022-10-03T00:14:55.318Z,82.17
2022-10-03T00:17:33.796Z,82.37
2022-10-03T00:20:11.941Z,82.40
2022-10-03T00:22:48.760Z,82.58
2022-10-03T00:25:35.028Z,82.81
2022-10-03T00:28:17.579Z,82.68
2022-10-03T00:30:57.623Z,82.73
2022-10-03T00:33:34.369Z,82.54
2022-10-03T00:36:09.510Z,82.56
2022-10-03T00:39:09.687Z,82.48
2022-10-03T00:42:04.926Z,82.37
2022-10-03T00:45:04.603Z,82.33
2022-10-03T00:48:06.453Z,82.22
2022-10-03T00:50:58.587Z,82.54
2022-10-03T00:53:48.450Z,82.47
2022-10-03T00:56:35.400Z,82.82
2022-10-03T00:59:15.111Z,82.63
2022-10-03T01:01:47.153Z,82.90
2022-10-03T01:04:54.603Z,82.85
2022-10-03T01:07:40.296Z,82.70
2022-10-03T01:10:20.099Z,82.54
2022-10-03T01:13:12.089Z,82.62
2022-10-03T01:15:49.690Z,82.76
2022-10-03T01:18:29.166Z,82.79
2022-10-03T01:21:06.387Z,82.89
2022-10-03T01:24:10.721Z,82.96
2022-10-03T01:26:53.609Z,82.54
2022-10-03T01:29:48.246Z,82.99
2022-10-03T01:32:21.374Z,83.12
2022-10-03T01:34:55.803Z,83.42
2022-10-03T01:37:31.285Z,82.99
2022-10-03T01:40:09.964Z,83.07
2022-10-03T01:42:45.000Z,83.33
2022-10-03T01:45:26.149Z,83.45
2022-10-03T01:48:00.682Z,83.12
2022-10-03T01:50:36.491Z,83.19
2022-10-03T01:53:13.546Z,83.56
2022-10-03T01:55:50.874Z,83.67
2022-10-03T01:58:27.139Z,83.21
2022-10-03T02:01:07.464Z,83.61
2022-10-03T02:03:40.412Z,83.39
2022-10-03T02:06:20.780Z,83.46
2022-10-03T02:08:57.525Z,83.53
2022-10-03T02:11:32.691Z,83.61
2022-10-03T02:14:14.698Z,83.20
2022-10-03T02:16:45.992Z,83.58
2022-10-03T02:19:23.629Z,83.52
2022-10-03T02:21:53.997Z,83.68
2022-10-03T02:24:39.699Z,83.56
2022-10-03T02:27:22.328Z,83.96
2022-10-03T02:30:06.061Z,84.15
2022-10-03T02:33:11.474Z,84.36
2022-10-03T02:36:20.397Z,84.31
2022-10-03T02:39:22.988Z,84.25
2022-10-03T02:42:25.167Z,84.39
2022-10-03T02:45:23.097Z,84.83
2022-10-03T02:48:31.288Z,84.80
2022-10-03T02:51:38.955Z,84.82
2022-10-03T02:54:38.800Z,84.43
2022-10-03T02:57:42.754Z,85.04
2022-10-03T03:00:13.599Z,85.00
2022-10-03T03:03:13.712Z,84.64
2022-10-03T03:06:17.943Z,84.81
2022-10-03T03:09:03.411Z,85.13
2022-10-03T03:12:02.170Z,84.44
2022-10-03T03:15:13.591Z,84.80
2022-10-03T03:17:49.426Z,84.54
2022-10-03T03:20:40.286Z,84.29
2022-10-03T03:23:55.236Z,84.61
2022-10-03T03:26:48.046Z,84.78
2022-10-03T03:29:27.128Z,84.78
2022-10-03T03:32:03.393Z,84.50
2022-10-03T03:34:39.336Z,83.99
2022-10-03T03:37:12.576Z,84.29
2022-10-03T03:39:58.479Z,84.17
2022-10-03T03:42:50.988Z,84.01
2022-10-03T03:45:43.449Z,84.01
2022-10-03T03:48:24.032Z,84.43
2022-10-03T03:51:12.095Z,84.46
2022-10-03T03:53:58.525Z,84.19
2022-10-03T03:56:47.289Z,84.51
2022-10-03T03:59:34.454Z,84.80
2022-10-03T04:02:21.616Z,84.59
2022-10-03T04:05:05.011Z,84.82
2022-10-03T04:07:49.325Z,84.97
2022-10-03T04:10:32.303Z,85.13
2022-10-03T04:13:32.089Z,84.74
2022-10-03T04:16:15.143Z,84.88
2022-10-03T04:19:04.382Z,84.89
2022-10-03T04:21:47.712Z,85.22
2022-10-03T04:24:45.614Z,85.16
2022-10-03T04:27:38.104Z,85.25
2022-10-03T04:30:15.773Z,85.45
2022-10-03T04:33:00.275Z,84.77
2022-10-03T04:36:09.607Z,85.06
2022-10-03T04:38:49.794Z,85.62
2022-10-03T04:41:28.633Z,85.83
2022-10-03T04:44:05.056Z,85.45
2022-10-03T04:46:40.722Z,85.65
2022-10-03T04:49:19.850Z,85.28
2022-10-03T04:51:55.946Z,85.37
2022-10-03T04:54:31.442Z,85.61
2022-10-03T04:57:06.161Z,85.79
2022-10-03T04:59:45.539Z,85.69
2022-10-03T05:02:26.854Z,86.21
2022-10-03T05:05:14.305Z,85.89
2022-10-03T05:07:50.912Z,85.87
2022-10-03T05:10:32.076Z,86.60
2022-10-03T05:13:11.365Z,85.86
2022-10-03T05:15:46.143Z,86.74
2022-10-03T05:18:25.971Z,85.74
2022-10-03T05:21:00.756Z,86.02
2022-10-03T05:23:41.249Z,86.45
2022-10-03T05:26:43.698Z,85.78
2022-10-03T05:29:16.206Z,86.12
2022-10-03T05:31:50.294Z,86.67
2022-10-03T05:34:33.933Z,86.15
2022-10-03T05:37:25.223Z,86.96
2022-10-03T05:39:57.816Z,87.21
2022-10-03T05:42:37.250Z,87.35
2022-10-03T05:45:23.380Z,86.89
2022-10-03T05:47:55.557Z,87.80
2022-10-03T05:50:58.303Z,88.29
2022-10-03T05:53:56.732Z,88.15
2022-10-03T05:56:38.942Z,88.03
2022-10-03T05:59:30.697Z,88.87
2022-10-03T06:02:22.446Z,89.87
2022-10-03T06:05:17.104Z,91.06
2022-10-03T06:08:05.871Z,91.14
2022-10-03T06:10:50.985Z,92.02
2022-10-03T06:13:30.523Z,91.88
2022-10-03T06:16:06.729Z,92.05
2022-10-03T06:18:57.759Z,92.43
2022-10-03T06:22:01.831Z,92.60
2022-10-03T06:25:13.793Z,92.56
2022-10-03T06:28:21.024Z,91.57
2022-10-03T06:31:12.281Z,91.55
2022-10-03T06:34:03.800Z,91.56
2022-10-03T06:36:55.301Z,91.69
2022-10-03T06:40:06.253Z,91.50
2022-10-03T06:43:02.117Z,93.15
2022-10-03T06:46:08.402Z,93.66
2022-10-03T06:49:24.272Z,94.27
2022-10-03T06:52:19.118Z,94.61
2022-10-03T06:55:33.149Z,94.68
2022-10-03T06:58:42.126Z,95.88
2022-10-03T07:01:53.578Z,95.65
2022-10-03T07:04:56.242Z,94.96
2022-10-03T07:08:09.328Z,95.49
2022-10-03T07:11:04.314Z,95.17
2022-10-03T07:13:52.891Z,95.25
2022-10-03T07:16:52.461Z,95.42
2022-10-03T07:19:45.444Z,96.01
2022-10-03T07:22:48.900Z,98.16
2022-10-03T07:25:57.159Z,100.00
2022-10-03T07:28:53.044Z,99.02
2022-10-03T07:31:38.171Z,98.69
2022-10-03T07:34:34.328Z,99.50
2022-10-03T07:37:35.320Z,98.90
2022-10-03T07:40:42.182Z,98.93
2022-10-03T07:43:37.791Z,98.65
2022-10-03T07:46:32.982Z,98.44
2022-10-03T07:49:26.654Z,97.94
2022-10-03T07:52:15.633Z,97.72
2022-10-03T07:55:16.230Z,98.91
2022-10-03T07:58:14.526Z,99.05
2022-10-03T08:01:00.263Z,98.65
2022-10-03T08:03:56.734Z,96.69
2022-10-03T08:06:35.372Z,95.90
2022-10-03T08:09:38.235Z,95.28
2022-10-03T08:12:42.236Z,95.81
2022-10-03T08:15:12.516Z,95.40
2022-10-03T08:18:18.777Z,94.56
2022-10-03T08:20:57.696Z,94.84
2022-10-03T08:23:54.203Z,93.53
2022-10-03T08:26:35.784Z,93.08
2022-10-03T08:29:21.939Z,90.73
2022-10-03T08:32:06.243Z,91.02
2022-10-03T08:35:18.761Z,90.59
2022-10-03T08:38:28.359Z,90.64
2022-10-03T08:41:37.474Z,91.10
2022-10-03T08:44:42.394Z,89.19
2022-10-03T08:47:32.973Z,89.14
2022-10-03T08:50:33.157Z,90.09
2022-10-03T08:53:40.083Z,90.30
2022-10-03T08:56:14.567Z,89.87
2022-10-03T08:59:25.043Z,88.95
2022-10-03T09:02:25.252Z,87.76
2022-10-03T09:05:29.537Z,86.92
2022-10-03T09:08:38.839Z,87.67
2022-10-03T09:11:49.260Z,87.10
2022-10-03T09:14:59.863Z,86.93
2022-10-03T09:17:54.096Z,85.91
2022-10-03T09:20:55.350Z,85.48
2022-10-03T09:23:59.334Z,85.11
2022-10-03T09:27:15.803Z,84.99
2022-10-03T09:30:21.072Z,83.99
2022-10-03T09:33:44.392Z,84.15
2022-10-03T09:36:40.109Z,83.67
2022-10-03T09:39:41.813Z,83.67
2022-10-03T09:42:51.193Z,82.19
2022-10-03T09:45:36.965Z,80.69
2022-10-03T09:48:37.082Z,79.52
2022-10-03T09:51:27.782Z,81.11
2022-10-03T09:54:24.886Z,79.89
2022-10-03T09:57:27.583Z,80.45
2022-10-03T10:00:25.401Z,79.54
2022-10-03T10:03:35.069Z,78.87
2022-10-03T10:06:13.441Z,80.16
2022-10-03T10:09:11.600Z,79.05
2022-10-03T10:12:05.333Z,78.34
2022-10-03T10:14:51.582Z,76.17
2022-10-03T10:17:55.038Z,76.04
2022-10-03T10:20:46.323Z,74.05
2022-10-03T10:23:32.885Z,75.85
2022-10-03T10:26:48.409Z,76.74
2022-10-03T10:29:31.304Z,76.74
2022-10-03T10:32:41.777Z,75.15
2022-10-03T10:35:44.551Z,74.96
2022-10-03T10:38:26.617Z,75.41
2022-10-03T10:41:31.525Z,74.54
2022-10-03T10:44:38.721Z,74.33
2022-10-03T10:47:14.332Z,74.65
2022-10-03T10:50:26.007Z,73.91
2022-10-03T10:53:40.126Z,74.55
2022-10-03T10:56:58.718Z,73.78
2022-10-03T11:00:16.297Z,72.74
2022-10-03T11:03:23.423Z,71.06
2022-10-03T11:06:42.996Z,71.84
2022-10-03T11:09:35.553Z,68.68
2022-10-03T11:12:51.989Z,69.64
2022-10-03T11:15:47.825Z,70.35
2022-10-03T11:19:14.959Z,70.40
2022-10-03T11:22:19.138Z,68.50
2022-10-03T11:25:23.533Z,67.80
2022-10-03T11:28:27.733Z,66.43
2022-10-03T11:31:44.523Z,67.83
2022-10-03T11:35:06.542Z,66.11
2022-10-03T11:37:43.395Z,67.43
2022-10-03T11:40:33.632Z,66.53
2022-10-03T11:43:35.319Z,66.53
2022-10-03T11:46:27.581Z,66.50
2022-10-03T11:49:01.191Z,67.63
2022-10-03T11:51:42.455Z,66.84
2022-10-03T11:54:31.686Z,66.41
2022-10-03T11:57:09.222Z,66.41
2022-10-03T12:00:00.403Z,65.81
2022-10-03T12:02:54.232Z,64.02
2022-10-03T12:05:33.446Z,65.27
2022-10-03T12:08:36.820Z,65.39
2022-10-03T12:11:14.053Z,66.19
2022-10-03T12:13:48.357Z,65.87
2022-10-03T12:16:29.055Z,64.77
2022-10-03T12:19:11.461Z,64.29
2022-10-03T12:21:52.408Z,64.88
2022-10-03T12:24:42.514Z,64.03
2022-10-03T12:27:24.460Z,64.27
2022-10-03T12:29:58.936Z,65.17
2022-10-03T12:32:38.858Z,63.71
2022-10-03T12:35:23.820Z,63.69
2022-10-03T12:38:10.239Z,63.99
2022-10-03T12:40:43.323Z,64.25
2022-10-03T12:43:29.679Z,62.50
2022-10-03T12:46:01.944Z,62.92
2022-10-03T12:48:45.956Z,62.03
2022-10-03T12:51:26.983Z,60.91
2022-10-03T12:54:08.381Z,60.38
2022-10-03T12:56:46.566Z,61.46
2022-10-03T12:59:24.698Z,62.31
2022-10-03T13:02:12.558Z,60.52
2022-10-03T13:04:47.727Z,61.64
2022-10-03T13:07:28.137Z,62.27
2022-10-03T13:10:11.065Z,62.33
2022-10-03T13:12:47.267Z,58.26
2022-10-03T13:15:43.325Z,58.92
2022-10-03T13:18:37.555Z,60.83
2022-10-03T13:21:27.135Z,61.07
2022-10-03T13:24:07.187Z,61.00
2022-10-03T13:26:48.520Z,60.82
2022-10-03T13:29:25.384Z,58.73
2022-10-03T13:32:16.528Z,58.75
2022-10-03T13:35:24.418Z,60.24
2022-10-03T13:38:36.766Z,59.84
2022-10-03T13:41:16.396Z,60.80
2022-10-03T13:43:50.928Z,60.93
2022-10-03T13:46:27.495Z,61.06
2022-10-03T13:49:02.334Z,61.25
2022-10-03T13:51:41.743Z,60.72
2022-10-03T13:54:16.195Z,61.68
2022-10-03T13:56:55.842Z,59.21
2022-10-03T13:59:48.681Z,59.62
2022-10-03T14:02:42.149Z,58.68
2022-10-03T14:05:41.550Z,57.67
2022-10-03T14:08:18.848Z,58.58
2022-10-03T14:11:23.422Z,59.50
2022-10-03T14:14:09.414Z,59.94
2022-10-03T14:16:42.691Z,59.57
2022-10-03T14:19:18.791Z,59.20
2022-10-03T14:22:04.298Z,57.48
2022-10-03T14:24:53.919Z,58.47
2022-10-03T14:27:37.303Z,58.53
2022-10-03T14:30:13.218Z,59.91
2022-10-03T14:32:51.460Z,58.25
2022-10-03T14:35:34.504Z,58.59
2022-10-03T14:38:18.985Z,58.51
2022-10-03T14:40:50.031Z,57.99
2022-10-03T14:43:38.323Z,57.73
2022-10-03T14:46:08.125Z,59.46
2022-10-03T14:48:39.281Z,59.63
2022-10-03T14:51:16.277Z,59.74
2022-10-03T14:53:48.870Z,58.76
2022-10-03T14:56:21.561Z,59.44
2022-10-03T14:58:52.820Z,60.55
2022-10-03T15:01:25.076Z,60.44
2022-10-03T15:04:02.787Z,60.82
2022-10-03T15:06:55.028Z,60.63
2022-10-03T15:09:26.787Z,60.95
2022-10-03T15:12:00.441Z,60.98
2022-10-03T15:14:31.000Z,60.98
2022-10-03T15:17:04.540Z,60.85
2022-10-03T15:19:44.454Z,60.64
2022-10-03T15:22:26.487Z,60.55
2022-10-03T15:24:57.513Z,60.96
2022-10-03T15:27:27.540Z,61.26
2022-10-03T15:29:59.556Z,61.14
2022-10-03T15:32:34.112Z,61.70
2022-10-03T15:35:03.756Z,61.60
2022-10-03T15:37:35.701Z,61.82
2022-10-03T15:40:09.599Z,62.23
2022-10-03T15:42:49.803Z,61.54
2022-10-03T15:45:29.477Z,61.47
2022-10-03T15:48:03.383Z,61.70
2022-10-03T15:50:33.563Z,62.55
2022-10-03T15:53:31.533Z,63.15
2022-10-03T15:56:02.645Z,62.97
2022-10-03T15:58:34.178Z,63.43
2022-10-03T16:01:08.709Z,63.43
2022-10-03T16:03:45.356Z,63.73
2022-10-03T16:06:19.356Z,63.81
2022-10-03T16:08:58.000Z,63.84
2022-10-03T16:11:29.229Z,64.08
2022-10-03T16:14:17.898Z,63.88
2022-10-03T16:16:50.685Z,64.19
2022-10-03T16:19:33.941Z,64.47
2022-10-03T16:22:24.371Z,65.29
2022-10-03T16:25:06.347Z,65.37
2022-10-03T16:27:37.584Z,65.96
2022-10-03T16:30:19.113Z,65.55
2022-10-03T16:32:54.114Z,65.19
2022-10-03T16:35:37.888Z,65.35
2022-10-03T16:38:21.348Z,65.99
2022-10-03T16:40:56.575Z,66.36
2022-10-03T16:43:26.084Z,67.21
2022-10-03T16:45:55.920Z,67.29
2022-10-03T16:48:45.870Z,67.81
2022-10-03T16:51:20.695Z,67.89
2022-10-03T16:53:51.218Z,68.30
2022-10-03T16:56:23.430Z,68.53
2022-10-03T16:58:54.032Z,68.97
2022-10-03T17:01:39.651Z,68.95
2022-10-03T17:04:21.454Z,68.71
2022-10-03T17:06:53.058Z,69.18
2022-10-03T17:09:31.939Z,68.88
2022-10-03T17:12:01.816Z,69.31
2022-10-03T17:14:37.108Z,69.13
2022-10-03T17:17:09.192Z,69.57
2022-10-03T17:19:42.106Z,70.32
2022-10-03T17:22:21.521Z,70.05
2022-10-03T17:24:54.546Z,70.22
2022-10-03T17:27:29.515Z,69.90
2022-10-03T17:30:02.336Z,70.54
2022-10-03T17:32:37.814Z,70.20
2022-10-03T17:35:13.210Z,70.23
2022-10-03T17:38:24.494Z,70.27
2022-10-03T17:41:11.777Z,70.47
2022-10-03T17:43:46.595Z,70.75
2022-10-03T17:46:21.289Z,70.55
2022-10-03T17:48:55.824Z,70.63
2022-10-03T17:51:39.397Z,70.73
2022-10-03T17:54:15.132Z,70.36
2022-10-03T17:56:47.911Z,71.04
2022-10-03T17:59:21.080Z,71.12
2022-10-03T18:01:52.985Z,71.80
2022-10-03T18:04:23.839Z,71.53
2022-10-03T18:06:55.381Z,71.61
2022-10-03T18:09:45.673Z,72.38
2022-10-03T18:12:24.635Z,71.88
2022-10-03T18:15:13.022Z,72.30
2022-10-03T18:17:58.310Z,72.06
2022-10-03T18:20:38.642Z,72.49
2022-10-03T18:23:11.418Z,72.28
2022-10-03T18:26:20.042Z,72.68
2022-10-03T18:28:58.443Z,73.09
2022-10-03T18:31:31.034Z,72.86
2022-10-03T18:34:12.846Z,73.44
2022-10-03T18:36:47.002Z,73.69
2022-10-03T18:39:18.777Z,73.54
2022-10-03T18:41:52.175Z,73.71
2022-10-03T18:44:22.955Z,73.84
2022-10-03T18:46:58.026Z,74.32
2022-10-03T18:49:33.860Z,74.69
2022-10-03T18:52:10.624Z,74.49
2022-10-03T18:54:49.512Z,74.78
2022-10-03T18:57:23.592Z,74.68
2022-10-03T18:59:57.515Z,75.14
2022-10-03T19:02:33.206Z,75.14
2022-10-03T19:05:08.536Z,75.41
2022-10-03T19:07:43.905Z,75.50
2022-10-03T19:10:34.963Z,75.22
2022-10-03T19:13:13.434Z,75.39
2022-10-03T19:16:02.518Z,75.72
2022-10-03T19:18:41.835Z,75.48
2022-10-03T19:21:18.648Z,75.37
2022-10-03T19:23:50.441Z,76.42
2022-10-03T19:26:25.736Z,76.25
2022-10-03T19:28:59.784Z,76.44
2022-10-03T19:31:32.302Z,76.48
2022-10-03T19:34:04.498Z,76.76
2022-10-03T19:36:35.977Z,77.17
2022-10-03T19:39:05.990Z,76.97
2022-10-03T19:41:38.814Z,76.88
2022-10-03T19:44:10.522Z,77.17
2022-10-03T19:47:00.036Z,77.35
2022-10-03T19:49:33.509Z,77.91
2022-10-03T19:52:19.321Z,77.13
2022-10-03T19:54:54.214Z,77.52
2022-10-03T19:57:27.336Z,77.58
2022-10-03T20:00:00.248Z,77.57
2022-10-03T20:02:29.925Z,78.14
2022-10-03T20:04:58.999Z,78.37
2022-10-03T20:07:41.798Z,77.73
2022-10-03T20:10:34.368Z,77.88
2022-10-03T20:13:03.971Z,78.32
2022-10-03T20:15:43.930Z,77.92
2022-10-03T20:18:21.034Z,78.55
2022-10-03T20:20:52.161Z,78.23
2022-10-03T20:23:22.760Z,78.21
2022-10-03T20:25:55.497Z,78.74
2022-10-03T20:28:30.447Z,78.17
2022-10-03T20:30:59.823Z,78.67
2022-10-03T20:33:30.760Z,78.35
2022-10-03T20:36:03.467Z,78.44
2022-10-03T20:39:02.607Z,78.34
2022-10-03T20:41:41.096Z,78.52
2022-10-03T20:44:17.829Z,78.65
2022-10-03T20:46:50.406Z,78.46
2022-10-03T20:49:32.668Z,78.77
2022-10-03T20:52:04.412Z,78.87
2022-10-03T20:54:37.397Z,78.32
2022-10-03T20:57:15.420Z,78.36
2022-10-03T20:59:47.402Z,78.89
2022-10-03T21:02:26.397Z,78.56
2022-10-03T21:04:59.790Z,78.85
2022-10-03T21:07:36.466Z,78.75
2022-10-03T21:10:16.378Z,79.35
2022-10-03T21:12:47.766Z,78.92
2022-10-03T21:15:30.678Z,79.13
2022-10-03T21:18:00.286Z,79.14
2022-10-03T21:20:33.729Z,79.15
2022-10-03T21:23:04.963Z,78.66
2022-10-03T21:25:35.654Z,79.26
2022-10-03T21:28:05.477Z,79.28
2022-10-03T21:30:55.168Z,79.32
2022-10-03T21:33:31.829Z,79.38
2022-10-03T21:36:10.018Z,79.41
2022-10-03T21:38:39.532Z,80.19
2022-10-03T21:41:27.957Z,79.79
2022-10-03T21:43:58.844Z,80.02
2022-10-03T21:46:37.746Z,80.10
2022-10-03T21:49:37.986Z,80.38
2022-10-03T21:52:29.719Z,80.57
2022-10-03T21:55:33.587Z,80.82
2022-10-03T21:58:21.113Z,80.49
2022-10-03T22:01:04.582Z,80.52
2022-10-03T22:03:39.039Z,80.82
2022-10-03T22:06:18.956Z,81.28
2022-10-03T22:08:48.781Z,81.08
2022-10-03T22:11:26.843Z,81.15
2022-10-03T22:14:02.293Z,81.40
2022-10-03T22:16:39.922Z,81.47
2022-10-03T22:19:16.081Z,81.57
2022-10-03T22:21:58.979Z,81.35
2022-10-03T22:24:35.854Z,81.30
2022-10-03T22:27:10.478Z,81.19
2022-10-03T22:29:48.038Z,81.26
2022-10-03T22:32:22.951Z,81.20
2022-10-03T22:34:59.060Z,81.66
2022-10-03T22:37:28.521Z,81.69
2022-10-03T22:40:00.285Z,81.32
2022-10-03T22:42:30.181Z,81.48
2022-10-03T22:44:58.640Z,81.60
2022-10-03T22:47:31.021Z,81.67
2022-10-03T22:50:03.403Z,82.00
2022-10-03T22:52:36.619Z,81.94
2022-10-03T22:55:06.828Z,82.16
2022-10-03T22:57:35.956Z,82.08
2022-10-03T23:00:08.768Z,82.42
2022-10-03T23:02:39.568Z,82.38
2022-10-03T23:05:10.955Z,82.95
2022-10-03T23:07:55.707Z,82.58
2022-10-03T23:10:44.583Z,83.23
2022-10-03T23:13:19.150Z,83.38
2022-10-03T23:15:52.859Z,83.43
2022-10-03T23:18:58.316Z,83.49
2022-10-03T23:21:26.361Z,83.50
2022-10-03T23:24:04.410Z,83.30
2022-10-03T23:26:48.210Z,83.48
2022-10-03T23:29:18.220Z,83.49
2022-10-03T23:31:58.829Z,83.30
2022-10-03T23:35:08.185Z,84.15
2022-10-03T23:37:45.679Z,83.37
2022-10-03T23:40:46.141Z,83.61
2022-10-03T23:43:37.229Z,83.64
2022-10-03T23:46:09.857Z,83.54
2022-10-03T23:48:44.305Z,83.89
2022-10-03T23:51:15.561Z,83.57
2022-10-03T23:53:47.302Z,84.12
2022-10-03T23:56:31.388Z,83.74
2022-10-03T23:59:12.359Z,83.82
